Andover, Massachusetts
Current Conditions -  °F | °C
As of 1:54 PM on Monday 22 Dec 2014 (Local Time) from KLWM Reporting Station
Overcast Overcast  
Wind Chill:   Ceiling: 1200
Heat Index:   Visibility: 10mi
Dew Point:   Wind: 7mph
Humidity: 83%   Direction: 30°NNE
Pressure: 30.36"   Gusts: NA
Location:  42.65°N, 71.14°W
Report Text: KLWM 221854Z 03006KT 10SM OVC012 04/02 A3036 RMK AO2 RAE37 SLP281 P0000 T00440017
Loading
Personal Weather Stations






























Interactive Weather Map New forecast layout! Learn more

10-Day Weather Forecast

Advertisements
Track Severe Weather on mobile